createdAt,value
2018-03-27T00:00:16.719Z,9.67
2018-03-27T00:01:20.040Z,9.67
2018-03-27T00:02:23.394Z,9.65
2018-03-27T00:03:26.733Z,9.65
2018-03-27T00:04:30.069Z,9.63
2018-03-27T00:05:33.402Z,9.61
2018-03-27T00:06:36.701Z,9.60
2018-03-27T00:07:40.093Z,9.57
2018-03-27T00:08:43.400Z,9.55
2018-03-27T00:09:46.791Z,9.52
2018-03-27T00:10:50.088Z,9.50
2018-03-27T00:11:53.499Z,9.48
2018-03-27T00:12:56.827Z,9.46
2018-03-27T00:14:00.144Z,9.44
2018-03-27T00:15:03.503Z,9.41
2018-03-27T00:16:06.905Z,9.38
2018-03-27T00:17:10.203Z,9.36
2018-03-27T00:18:13.560Z,9.34
2018-03-27T00:19:16.900Z,9.32
2018-03-27T00:20:20.212Z,9.30
2018-03-27T00:21:23.558Z,9.28
2018-03-27T00:22:26.870Z,9.27
2018-03-27T00:23:30.212Z,9.25
2018-03-27T00:24:42.383Z,9.23
2018-03-27T00:25:45.751Z,9.18
2018-03-27T00:27:00.535Z,9.16
2018-03-27T00:28:16.799Z,9.11
2018-03-27T00:29:31.839Z,9.06
2018-03-27T00:30:46.877Z,9.03
2018-03-27T00:32:01.925Z,8.99
2018-03-27T00:33:17.068Z,8.95
2018-03-27T00:34:32.048Z,8.93
2018-03-27T00:35:47.118Z,8.89
2018-03-27T00:37:02.153Z,8.86
2018-03-27T00:38:17.238Z,8.85
2018-03-27T00:39:32.489Z,8.82
2018-03-27T00:40:43.373Z,8.79
2018-03-27T00:43:33.702Z,8.68
2018-03-27T00:44:37.033Z,8.70
2018-03-27T00:45:40.349Z,8.71
2018-03-27T00:46:43.690Z,8.70
2018-03-27T00:47:47.044Z,8.70
2018-03-27T00:48:50.356Z,8.71
2018-03-27T00:49:53.767Z,8.70
2018-03-27T00:50:57.082Z,8.69
2018-03-27T00:52:00.570Z,8.67
2018-03-27T00:53:03.860Z,8.66
2018-03-27T00:54:07.187Z,8.65
2018-03-27T00:55:10.604Z,8.63
2018-03-27T00:56:13.917Z,8.62
2018-03-27T00:57:17.260Z,8.61
2018-03-27T00:58:20.549Z,8.60
2018-03-27T00:59:23.883Z,8.59
2018-03-27T01:00:27.961Z,8.58
2018-03-27T01:01:31.348Z,8.58
2018-03-27T01:02:34.697Z,8.56
2018-03-27T01:03:38.116Z,8.55
2018-03-27T01:04:41.408Z,8.54
2018-03-27T01:05:44.737Z,8.54
2018-03-27T01:06:48.085Z,8.52
2018-03-27T01:07:51.484Z,8.51
2018-03-27T01:08:54.783Z,8.50
2018-03-27T01:09:58.106Z,8.49
2018-03-27T01:11:01.459Z,8.49
2018-03-27T01:12:04.804Z,8.48
2018-03-27T01:13:08.139Z,8.47
2018-03-27T01:14:11.464Z,8.45
2018-03-27T01:15:14.846Z,8.45
2018-03-27T01:16:18.159Z,8.43
2018-03-27T01:17:21.470Z,8.42
2018-03-27T01:18:24.810Z,8.41
2018-03-27T01:19:28.131Z,8.40
2018-03-27T01:20:31.470Z,8.39
2018-03-27T01:21:34.822Z,8.38
2018-03-27T01:22:38.144Z,8.37
2018-03-27T01:23:41.465Z,8.35
2018-03-27T01:24:44.780Z,8.34
2018-03-27T01:25:48.204Z,8.33
2018-03-27T01:26:51.540Z,8.33
2018-03-27T01:27:55.688Z,8.32
2018-03-27T01:28:59.197Z,8.31
2018-03-27T01:30:02.508Z,8.30
2018-03-27T01:31:06.651Z,8.28
2018-03-27T01:32:09.993Z,8.27
2018-03-27T01:33:13.291Z,8.26
2018-03-27T01:34:16.629Z,8.24
2018-03-27T01:35:20.017Z,8.23
2018-03-27T01:36:23.318Z,8.22
2018-03-27T01:37:26.682Z,8.20
2018-03-27T01:38:30.009Z,8.19
2018-03-27T01:39:33.344Z,8.18
2018-03-27T01:40:36.653Z,8.17
2018-03-27T01:41:40.010Z,8.15
2018-03-27T01:42:43.403Z,8.13
2018-03-27T01:43:46.727Z,8.12
2018-03-27T01:44:50.082Z,8.11
2018-03-27T01:45:53.430Z,8.10
2018-03-27T01:46:56.742Z,8.09
2018-03-27T01:48:00.086Z,8.07
2018-03-27T01:49:03.683Z,8.07
2018-03-27T01:50:07.004Z,8.06
2018-03-27T01:51:10.385Z,8.05
2018-03-27T01:52:13.771Z,8.04
2018-03-27T01:53:17.115Z,8.03
2018-03-27T01:54:20.448Z,8.02
2018-03-27T01:55:23.937Z,8.01
2018-03-27T01:56:27.245Z,8.00
2018-03-27T01:57:30.595Z,7.99
2018-03-27T01:58:33.924Z,7.98
2018-03-27T01:59:37.237Z,7.97
2018-03-27T02:00:40.552Z,7.97
2018-03-27T02:01:43.899Z,7.95
2018-03-27T02:02:47.201Z,7.94
2018-03-27T02:03:50.541Z,7.93
2018-03-27T02:04:53.835Z,7.92
2018-03-27T02:05:57.163Z,7.91
2018-03-27T02:07:00.480Z,7.90
2018-03-27T02:08:03.819Z,7.89
2018-03-27T02:09:07.155Z,7.88
2018-03-27T02:10:10.500Z,7.87
2018-03-27T02:11:19.293Z,7.86
2018-03-27T02:12:28.343Z,7.83
2018-03-27T02:13:37.365Z,7.82
2018-03-27T02:14:46.411Z,7.79
2018-03-27T02:15:55.428Z,7.78
2018-03-27T02:17:04.501Z,7.76
2018-03-27T02:18:13.419Z,7.74
2018-03-27T02:19:22.429Z,7.72
2018-03-27T02:20:31.414Z,7.71
2018-03-27T02:21:34.162Z,7.69
2018-03-27T02:22:39.947Z,7.70
2018-03-27T02:23:44.200Z,7.70
2018-03-27T02:24:48.244Z,7.71
2018-03-27T02:25:51.618Z,7.71
2018-03-27T02:26:54.962Z,7.71
2018-03-27T02:27:58.273Z,7.71
2018-03-27T02:29:02.432Z,7.72
2018-03-27T02:30:06.115Z,7.72
2018-03-27T02:31:09.438Z,7.73
2018-03-27T02:32:13.442Z,7.74
2018-03-27T02:33:16.748Z,7.74
2018-03-27T02:34:20.079Z,7.75
2018-03-27T02:35:23.459Z,7.77
2018-03-27T02:36:26.822Z,7.77
2018-03-27T02:37:30.192Z,7.79
2018-03-27T02:38:33.495Z,7.80
2018-03-27T02:39:36.830Z,7.81
2018-03-27T02:40:40.135Z,7.82
2018-03-27T02:41:43.521Z,7.83
2018-03-27T02:42:46.886Z,7.84
2018-03-27T02:43:50.195Z,7.85
2018-03-27T02:44:53.537Z,7.85
2018-03-27T02:45:56.887Z,7.85
2018-03-27T02:47:00.221Z,7.85
2018-03-27T02:48:03.546Z,7.85
2018-03-27T02:49:06.853Z,7.84
2018-03-27T02:50:10.537Z,7.84
2018-03-27T02:51:13.891Z,7.83
2018-03-27T02:52:17.298Z,7.82
2018-03-27T02:53:20.614Z,7.82
2018-03-27T02:54:23.947Z,7.81
2018-03-27T02:55:27.256Z,7.80
2018-03-27T02:56:30.931Z,7.78
2018-03-27T02:57:34.252Z,7.77
2018-03-27T02:58:37.576Z,7.75
2018-03-27T02:59:40.899Z,7.75
2018-03-27T03:00:44.258Z,7.73
2018-03-27T03:01:47.585Z,7.73
2018-03-27T03:02:50.950Z,7.71
2018-03-27T03:03:54.338Z,7.70
2018-03-27T03:04:57.656Z,7.68
2018-03-27T03:06:00.954Z,7.67
2018-03-27T03:07:04.290Z,7.66
2018-03-27T03:08:07.694Z,7.65
2018-03-27T03:09:11.023Z,7.63
2018-03-27T03:10:14.324Z,7.62
2018-03-27T03:11:17.700Z,7.59
2018-03-27T03:12:21.918Z,7.58
2018-03-27T03:13:25.279Z,7.57
2018-03-27T03:14:28.580Z,7.55
2018-03-27T03:15:31.894Z,7.55
2018-03-27T03:16:35.256Z,7.53
2018-03-27T03:17:38.642Z,7.52
2018-03-27T03:18:42.016Z,7.50
2018-03-27T03:19:45.432Z,7.49
2018-03-27T03:20:48.736Z,7.47
2018-03-27T03:21:52.112Z,7.46
2018-03-27T03:22:55.351Z,7.44
2018-03-27T03:23:58.719Z,7.43
2018-03-27T03:25:02.043Z,7.42
2018-03-27T03:26:05.442Z,7.42
2018-03-27T03:27:08.724Z,7.41
2018-03-27T03:28:12.046Z,7.39
2018-03-27T03:29:17.299Z,7.38
2018-03-27T03:30:20.626Z,7.37
2018-03-27T03:31:23.956Z,7.36
2018-03-27T03:32:27.247Z,7.35
2018-03-27T03:33:30.576Z,7.34
2018-03-27T03:34:33.927Z,7.33
2018-03-27T03:35:37.261Z,7.33
2018-03-27T03:36:40.572Z,7.33
2018-03-27T03:37:43.880Z,7.32
2018-03-27T03:38:47.191Z,7.31
2018-03-27T03:39:50.539Z,7.30
2018-03-27T03:40:53.844Z,7.30
2018-03-27T03:41:57.160Z,7.28
2018-03-27T03:43:00.500Z,7.27
2018-03-27T03:44:03.844Z,7.26
2018-03-27T03:45:07.468Z,7.25
2018-03-27T03:46:10.821Z,7.25
2018-03-27T03:47:14.142Z,7.24
2018-03-27T03:48:17.456Z,7.23
2018-03-27T03:49:20.761Z,7.23
2018-03-27T03:50:24.099Z,7.22
2018-03-27T03:51:27.436Z,7.21
2018-03-27T03:52:30.792Z,7.20
2018-03-27T03:53:34.100Z,7.19
2018-03-27T03:54:37.415Z,7.19
2018-03-27T03:55:40.744Z,7.19
2018-03-27T03:56:44.064Z,7.19
2018-03-27T03:57:47.392Z,7.18
2018-03-27T03:58:50.753Z,7.18
2018-03-27T03:59:54.112Z,7.18
2018-03-27T04:00:57.490Z,7.18
2018-03-27T04:02:00.794Z,7.17
2018-03-27T04:03:04.136Z,7.17
2018-03-27T04:04:07.422Z,7.17
2018-03-27T04:05:10.729Z,7.19
2018-03-27T04:06:14.087Z,7.19
2018-03-27T04:07:17.383Z,7.19
2018-03-27T04:08:20.704Z,7.19
2018-03-27T04:09:24.017Z,7.19
2018-03-27T04:10:27.353Z,7.19
2018-03-27T04:11:30.725Z,7.19
2018-03-27T04:12:34.032Z,7.19
2018-03-27T04:13:37.361Z,7.18
2018-03-27T04:14:41.180Z,7.18
2018-03-27T04:15:44.503Z,7.17
2018-03-27T04:16:47.844Z,7.16
2018-03-27T04:17:51.219Z,7.16
2018-03-27T04:18:54.537Z,7.15
2018-03-27T04:19:57.909Z,7.15
2018-03-27T04:21:02.148Z,7.15
2018-03-27T04:22:05.486Z,7.14
2018-03-27T04:23:08.795Z,7.14
2018-03-27T04:24:12.123Z,7.14
2018-03-27T04:25:15.464Z,7.13
2018-03-27T04:26:18.811Z,7.14
2018-03-27T04:27:22.161Z,7.13
2018-03-27T04:28:25.478Z,7.13
2018-03-27T04:29:30.503Z,7.12
2018-03-27T04:30:33.830Z,7.11
2018-03-27T04:31:37.141Z,7.11
2018-03-27T04:32:40.499Z,7.12
2018-03-27T04:33:43.795Z,7.11
2018-03-27T04:34:47.095Z,7.12
2018-03-27T04:35:50.800Z,7.12
2018-03-27T04:36:54.134Z,7.11
2018-03-27T04:37:57.521Z,7.11
2018-03-27T04:39:00.870Z,7.12
2018-03-27T04:40:04.199Z,7.11
2018-03-27T04:41:07.524Z,7.11
2018-03-27T04:42:10.853Z,7.11
2018-03-27T04:43:14.184Z,7.11
2018-03-27T04:44:18.112Z,7.12
2018-03-27T04:45:21.459Z,7.11
2018-03-27T04:46:24.814Z,7.11
2018-03-27T04:47:28.099Z,7.11
2018-03-27T04:48:31.439Z,7.11
2018-03-27T04:49:34.758Z,7.10
2018-03-27T04:50:38.093Z,7.10
2018-03-27T04:51:41.431Z,7.10
2018-03-27T04:52:44.760Z,7.09
2018-03-27T04:53:48.140Z,7.09
2018-03-27T04:54:51.526Z,7.08
2018-03-27T04:55:54.860Z,7.07
2018-03-27T04:56:58.194Z,7.07
2018-03-27T04:58:01.632Z,7.06
2018-03-27T04:59:05.010Z,7.05
2018-03-27T05:00:08.395Z,7.05
2018-03-27T05:01:11.759Z,7.04
2018-03-27T05:02:15.091Z,7.03
2018-03-27T05:03:18.498Z,7.03
2018-03-27T05:04:21.845Z,7.02
2018-03-27T05:05:25.164Z,7.02
2018-03-27T05:06:28.584Z,7.01
2018-03-27T05:07:31.955Z,7.00
2018-03-27T05:08:36.056Z,7.00
2018-03-27T05:09:41.449Z,7.01
2018-03-27T05:10:44.744Z,6.99
2018-03-27T05:11:48.068Z,6.99
2018-03-27T05:12:51.400Z,6.99
2018-03-27T05:13:54.725Z,6.99
2018-03-27T05:14:58.095Z,6.99
2018-03-27T05:16:01.439Z,6.99
2018-03-27T05:17:04.796Z,6.98
2018-03-27T05:18:08.126Z,6.98
2018-03-27T05:19:11.425Z,6.99
2018-03-27T05:20:14.792Z,6.98
2018-03-27T05:21:18.203Z,6.98
2018-03-27T05:22:21.490Z,6.97
2018-03-27T05:23:24.815Z,6.97
2018-03-27T05:24:28.113Z,6.97
2018-03-27T05:25:31.455Z,6.97
2018-03-27T05:26:34.821Z,6.96
2018-03-27T05:27:38.140Z,6.96
2018-03-27T05:28:41.490Z,6.94
2018-03-27T05:29:46.056Z,6.94
2018-03-27T05:30:49.550Z,6.94
2018-03-27T05:31:52.847Z,6.94
2018-03-27T05:32:56.170Z,6.94
2018-03-27T05:33:59.570Z,6.93
2018-03-27T05:35:02.965Z,6.93
2018-03-27T05:36:06.292Z,6.94
2018-03-27T05:37:09.714Z,6.94
2018-03-27T05:38:13.041Z,6.93
2018-03-27T05:39:16.367Z,6.94
2018-03-27T05:40:20.031Z,6.93
2018-03-27T05:41:23.372Z,6.93
2018-03-27T05:42:26.710Z,6.93
2018-03-27T05:43:30.024Z,6.94
2018-03-27T05:44:33.411Z,6.94
2018-03-27T05:45:36.717Z,6.95
2018-03-27T05:46:40.096Z,6.95
2018-03-27T05:47:43.380Z,6.99
2018-03-27T05:48:46.709Z,7.03
2018-03-27T05:49:50.072Z,7.06
2018-03-27T05:50:53.443Z,7.08
2018-03-27T05:51:56.787Z,7.13
2018-03-27T05:53:00.117Z,7.20
2018-03-27T05:54:03.488Z,7.27
2018-03-27T05:55:06.884Z,7.35
2018-03-27T05:56:10.231Z,7.43
2018-03-27T05:57:13.680Z,7.51
2018-03-27T05:58:17.041Z,7.59
2018-03-27T05:59:20.360Z,7.67
2018-03-27T06:00:23.667Z,7.77
2018-03-27T06:01:27.048Z,7.86
2018-03-27T06:02:30.372Z,7.95
2018-03-27T06:03:33.692Z,8.05
2018-03-27T06:04:37.794Z,8.15
2018-03-27T06:05:41.120Z,8.25
2018-03-27T06:06:44.496Z,8.33
2018-03-27T06:07:47.890Z,8.40
2018-03-27T06:08:51.294Z,8.47
2018-03-27T06:09:54.600Z,8.53
2018-03-27T06:10:57.976Z,8.58
2018-03-27T06:12:01.997Z,8.67
2018-03-27T06:13:05.362Z,8.74
2018-03-27T06:14:08.714Z,8.76
2018-03-27T06:15:12.136Z,8.77
2018-03-27T06:16:15.507Z,8.79
2018-03-27T06:17:18.841Z,8.83
2018-03-27T06:18:22.173Z,8.88
2018-03-27T06:19:25.499Z,8.97
2018-03-27T06:20:28.883Z,9.05
2018-03-27T06:21:32.228Z,9.15
2018-03-27T06:22:35.561Z,9.25
2018-03-27T06:23:38.985Z,9.35
2018-03-27T06:24:42.328Z,9.43
2018-03-27T06:25:45.692Z,9.53
2018-03-27T06:26:49.036Z,9.62
2018-03-27T06:27:52.372Z,9.70
2018-03-27T06:28:55.699Z,9.79
2018-03-27T06:29:59.961Z,9.88
2018-03-27T06:31:03.275Z,9.96
2018-03-27T06:32:06.714Z,10.05
2018-03-27T06:33:10.036Z,10.15
2018-03-27T06:34:13.508Z,10.24
2018-03-27T06:35:16.853Z,10.33
2018-03-27T06:36:20.260Z,10.41
2018-03-27T06:37:23.567Z,10.50
2018-03-27T06:38:26.888Z,10.59
2018-03-27T06:39:30.324Z,10.68
2018-03-27T06:40:33.636Z,10.75
2018-03-27T06:41:37.026Z,10.82
2018-03-27T06:42:40.384Z,10.89
2018-03-27T06:43:43.696Z,10.95
2018-03-27T06:44:47.050Z,11.04
2018-03-27T06:45:51.321Z,11.11
2018-03-27T06:46:54.647Z,11.18
2018-03-27T06:47:57.986Z,11.24
2018-03-27T06:49:01.364Z,11.29
2018-03-27T06:50:04.727Z,11.33
2018-03-27T06:51:08.059Z,11.35
2018-03-27T06:52:11.431Z,11.37
2018-03-27T06:53:14.744Z,11.37
2018-03-27T06:54:18.126Z,11.38
2018-03-27T06:55:21.546Z,11.39
2018-03-27T06:56:24.936Z,11.41
2018-03-27T06:57:28.255Z,11.42
2018-03-27T06:58:31.598Z,11.43
2018-03-27T06:59:34.920Z,11.42
2018-03-27T07:00:38.293Z,11.41
2018-03-27T07:01:41.602Z,11.39
2018-03-27T07:02:44.953Z,11.34
2018-03-27T07:03:49.022Z,11.30
2018-03-27T07:04:56.016Z,11.26
2018-03-27T07:05:59.431Z,11.26
2018-03-27T07:07:02.739Z,11.27
2018-03-27T07:08:06.055Z,11.28
2018-03-27T07:09:09.403Z,11.27
2018-03-27T07:10:12.718Z,11.24
2018-03-27T07:11:16.122Z,11.21
2018-03-27T07:12:19.412Z,11.14
2018-03-27T07:13:22.747Z,11.06
2018-03-27T07:14:26.080Z,10.99
2018-03-27T07:15:29.481Z,10.94
2018-03-27T07:16:32.867Z,10.89
2018-03-27T07:17:36.348Z,10.80
2018-03-27T07:18:39.866Z,10.72
2018-03-27T07:19:43.596Z,10.64
2018-03-27T07:20:46.941Z,10.55
2018-03-27T07:21:50.281Z,10.49
2018-03-27T07:22:53.736Z,10.46
2018-03-27T07:23:57.101Z,10.47
2018-03-27T07:25:00.411Z,10.50
2018-03-27T07:26:03.785Z,10.53
2018-03-27T07:27:07.137Z,10.52
2018-03-27T07:28:10.568Z,10.51
2018-03-27T07:29:13.926Z,10.47
2018-03-27T07:30:17.484Z,10.45
2018-03-27T07:31:20.754Z,10.43
2018-03-27T07:32:24.306Z,10.40
2018-03-27T07:33:27.576Z,10.36
2018-03-27T07:34:31.064Z,10.33
2018-03-27T07:35:34.406Z,10.30
2018-03-27T07:36:37.798Z,10.27
2018-03-27T07:37:41.158Z,10.22
2018-03-27T07:38:44.520Z,10.18
2018-03-27T07:39:47.828Z,10.15
2018-03-27T07:40:51.821Z,10.12
2018-03-27T07:41:57.205Z,10.09
2018-03-27T07:43:00.585Z,10.06
2018-03-27T07:44:03.903Z,10.03
2018-03-27T07:45:07.262Z,10.01
2018-03-27T07:46:10.571Z,9.99
2018-03-27T07:47:13.886Z,9.98
2018-03-27T07:48:17.260Z,9.97
2018-03-27T07:49:20.576Z,9.94
2018-03-27T07:50:23.965Z,9.93
2018-03-27T07:51:27.333Z,9.91
2018-03-27T07:52:30.720Z,9.89
2018-03-27T07:53:34.107Z,9.87
2018-03-27T07:54:37.836Z,9.85
2018-03-27T07:55:41.137Z,9.84
2018-03-27T07:56:44.525Z,9.83
2018-03-27T07:57:47.806Z,9.83
2018-03-27T07:58:51.248Z,9.83
2018-03-27T07:59:54.579Z,9.84
2018-03-27T08:00:57.890Z,9.84
2018-03-27T08:03:03.686Z,9.86
2018-03-27T08:04:07.023Z,9.86
2018-03-27T08:05:10.355Z,9.87
2018-03-27T08:06:13.707Z,9.87
2018-03-27T08:07:17.095Z,9.88
2018-03-27T08:08:20.444Z,9.90
2018-03-27T08:09:23.780Z,9.91
2018-03-27T08:10:27.097Z,9.92
2018-03-27T08:11:30.448Z,9.94
2018-03-27T08:12:33.749Z,9.95
2018-03-27T08:13:37.123Z,9.98
2018-03-27T08:14:40.482Z,10.00
2018-03-27T08:15:43.892Z,10.03
2018-03-27T08:16:47.233Z,10.06
2018-03-27T08:17:51.461Z,10.11
2018-03-27T08:18:54.860Z,10.15
2018-03-27T08:19:58.235Z,10.23
2018-03-27T08:21:01.560Z,10.30
2018-03-27T08:22:04.931Z,10.36
2018-03-27T08:23:08.327Z,10.43
2018-03-27T08:24:12.514Z,10.51
2018-03-27T08:25:16.434Z,10.56
2018-03-27T08:26:19.763Z,10.61
2018-03-27T08:27:23.398Z,10.65
2018-03-27T08:28:26.728Z,10.70
2018-03-27T08:29:30.088Z,10.76
2018-03-27T08:30:35.292Z,10.81
2018-03-27T08:31:38.683Z,10.85
2018-03-27T08:32:42.030Z,10.88
2018-03-27T08:33:45.401Z,10.91
2018-03-27T08:34:48.873Z,10.93
2018-03-27T08:35:53.092Z,10.97
2018-03-27T08:36:56.503Z,11.00
2018-03-27T08:37:59.858Z,11.05
2018-03-27T08:39:03.165Z,11.07
2018-03-27T08:40:06.520Z,11.11
2018-03-27T08:41:09.888Z,11.13
2018-03-27T08:42:13.192Z,11.13
2018-03-27T08:43:16.567Z,11.12
2018-03-27T08:44:19.930Z,11.12
2018-03-27T08:45:23.279Z,11.12
2018-03-27T08:46:26.615Z,11.11
2018-03-27T08:47:29.977Z,11.10
2018-03-27T08:48:33.353Z,11.08
2018-03-27T08:49:36.641Z,11.07
2018-03-27T08:50:40.012Z,11.09
2018-03-27T08:51:43.364Z,11.10
2018-03-27T08:52:46.798Z,11.12
2018-03-27T08:53:50.136Z,11.14
2018-03-27T08:54:53.494Z,11.17
2018-03-27T08:55:57.729Z,11.21
2018-03-27T08:57:01.215Z,11.24
2018-03-27T08:58:04.548Z,11.29
2018-03-27T08:59:07.889Z,11.31
2018-03-27T09:00:11.228Z,11.37
2018-03-27T09:01:14.523Z,11.42
2018-03-27T09:02:17.924Z,11.48
2018-03-27T09:03:21.239Z,11.55
2018-03-27T09:04:24.587Z,11.61
2018-03-27T09:05:27.971Z,11.67
2018-03-27T09:06:31.378Z,11.73
2018-03-27T09:07:34.733Z,11.81
2018-03-27T09:08:38.080Z,11.88
2018-03-27T09:09:41.434Z,11.94
2018-03-27T09:10:44.773Z,12.00
2018-03-27T09:11:48.111Z,12.07
2018-03-27T09:12:51.520Z,12.11
2018-03-27T09:13:54.935Z,12.16
2018-03-27T09:14:58.263Z,12.20
2018-03-27T09:16:01.596Z,12.22
2018-03-27T09:17:04.918Z,12.25
2018-03-27T09:18:08.256Z,12.27
2018-03-27T09:19:11.584Z,12.30
2018-03-27T09:20:14.946Z,12.32
2018-03-27T09:21:18.284Z,12.34
2018-03-27T09:22:21.625Z,12.35
2018-03-27T09:23:24.994Z,12.37
2018-03-27T09:24:28.368Z,12.41
2018-03-27T09:25:31.700Z,12.43
2018-03-27T09:26:35.015Z,12.47
2018-03-27T09:27:38.409Z,12.48
2018-03-27T09:28:41.771Z,12.49
2018-03-27T09:29:45.088Z,12.49
2018-03-27T09:30:49.368Z,12.50
2018-03-27T09:31:52.725Z,12.48
2018-03-27T09:32:56.049Z,12.47
2018-03-27T09:33:59.427Z,12.45
2018-03-27T09:35:02.745Z,12.42
2018-03-27T09:36:06.082Z,12.39
2018-03-27T09:37:09.445Z,12.37
2018-03-27T09:38:12.822Z,12.33
2018-03-27T09:39:16.328Z,12.29
2018-03-27T09:40:19.767Z,12.24
2018-03-27T09:41:23.136Z,12.22
2018-03-27T09:42:26.437Z,12.19
2018-03-27T09:43:29.775Z,12.16
2018-03-27T09:44:33.203Z,12.15
2018-03-27T09:45:36.539Z,12.15
2018-03-27T09:46:40.807Z,12.15
2018-03-27T09:47:44.188Z,12.14
2018-03-27T09:48:47.571Z,12.13
2018-03-27T09:49:50.954Z,12.12
2018-03-27T09:50:54.322Z,12.10
2018-03-27T09:51:57.682Z,12.11
2018-03-27T09:53:01.097Z,12.10
2018-03-27T09:54:04.444Z,12.10
2018-03-27T09:55:07.811Z,12.10
2018-03-27T09:56:11.135Z,12.10
2018-03-27T09:57:14.481Z,12.10
2018-03-27T09:58:17.818Z,12.12
2018-03-27T09:59:21.533Z,12.15
2018-03-27T10:00:30.590Z,12.17
2018-03-27T10:01:40.354Z,12.19
2018-03-27T10:02:43.652Z,12.21
2018-03-27T10:03:46.985Z,12.24
2018-03-27T10:04:50.574Z,12.25
2018-03-27T10:05:53.904Z,12.26
2018-03-27T10:06:57.237Z,12.25
2018-03-27T10:08:00.632Z,12.25
2018-03-27T10:09:04.084Z,12.27
2018-03-27T10:10:07.461Z,12.29
2018-03-27T10:11:10.841Z,12.30
2018-03-27T10:12:14.219Z,12.31
2018-03-27T10:13:17.532Z,12.33
2018-03-27T10:14:20.855Z,12.37
2018-03-27T10:15:24.184Z,12.39
2018-03-27T10:16:27.622Z,12.42
2018-03-27T10:17:31.024Z,12.43
2018-03-27T10:18:34.368Z,12.43
2018-03-27T10:19:37.692Z,12.43
2018-03-27T10:20:41.041Z,12.43
2018-03-27T10:21:44.488Z,12.45
2018-03-27T10:22:47.814Z,12.46
2018-03-27T10:23:51.164Z,12.47
2018-03-27T10:24:54.511Z,12.50
2018-03-27T10:25:57.903Z,12.53
2018-03-27T10:27:01.308Z,12.56
2018-03-27T10:28:04.717Z,12.60
2018-03-27T10:29:08.023Z,12.63
2018-03-27T10:30:11.363Z,12.67
2018-03-27T10:31:15.918Z,12.71
2018-03-27T10:32:19.282Z,12.74
2018-03-27T10:33:22.620Z,12.80
2018-03-27T10:34:26.034Z,12.84
2018-03-27T10:35:29.359Z,12.87
2018-03-27T10:36:32.707Z,12.90
2018-03-27T10:37:36.029Z,12.93
2018-03-27T10:38:39.396Z,12.95
2018-03-27T10:39:42.728Z,12.95
2018-03-27T10:40:46.061Z,12.95
2018-03-27T10:41:49.401Z,12.96
2018-03-27T10:42:52.746Z,12.99
2018-03-27T10:43:56.175Z,13.00
2018-03-27T10:44:59.524Z,13.01
2018-03-27T10:46:02.885Z,13.02
2018-03-27T10:47:06.185Z,13.02
2018-03-27T10:48:09.600Z,13.02
2018-03-27T10:49:12.935Z,13.03
2018-03-27T10:50:16.239Z,13.04
2018-03-27T10:51:19.565Z,13.05
2018-03-27T10:52:22.928Z,13.06
2018-03-27T10:53:26.465Z,13.09
2018-03-27T10:54:29.763Z,13.10
2018-03-27T10:55:33.152Z,13.11
2018-03-27T10:56:36.613Z,13.11
2018-03-27T10:57:39.991Z,13.13
2018-03-27T10:58:43.396Z,13.15
2018-03-27T10:59:46.711Z,13.18
2018-03-27T11:00:50.048Z,13.21
2018-03-27T11:01:53.419Z,13.25
2018-03-27T11:02:56.799Z,13.28
2018-03-27T11:04:00.258Z,13.33
2018-03-27T11:05:03.602Z,13.36
2018-03-27T11:06:06.960Z,13.40
2018-03-27T11:07:10.265Z,13.42
2018-03-27T11:08:13.605Z,13.45
2018-03-27T11:09:16.953Z,13.46
2018-03-27T11:10:20.298Z,13.47
2018-03-27T11:11:23.640Z,13.48
2018-03-27T11:12:27.066Z,13.50
2018-03-27T11:13:30.661Z,13.51
2018-03-27T11:14:34.023Z,13.53
2018-03-27T11:15:37.460Z,13.55
2018-03-27T11:16:40.809Z,13.56
2018-03-27T11:17:44.157Z,13.57
2018-03-27T11:18:47.484Z,13.58
2018-03-27T11:19:50.893Z,13.58
2018-03-27T11:20:54.217Z,13.58
2018-03-27T11:21:58.656Z,13.56
2018-03-27T11:23:02.537Z,13.56
2018-03-27T11:24:05.853Z,13.54
2018-03-27T11:25:09.242Z,13.53
2018-03-27T11:26:12.628Z,13.52
2018-03-27T11:27:16.006Z,13.51
2018-03-27T11:28:19.309Z,13.49
2018-03-27T11:29:22.705Z,13.48
2018-03-27T11:30:26.125Z,13.48
2018-03-27T11:31:29.419Z,13.48
2018-03-27T11:32:32.752Z,13.49
2018-03-27T11:33:36.114Z,13.48
2018-03-27T11:34:39.472Z,13.46
2018-03-27T11:35:42.828Z,13.46
2018-03-27T11:36:46.211Z,13.46
2018-03-27T11:37:49.535Z,13.46
2018-03-27T11:38:52.960Z,13.46
2018-03-27T11:39:56.255Z,13.47
2018-03-27T11:40:59.591Z,13.48
2018-03-27T11:42:02.922Z,13.52
2018-03-27T11:43:06.302Z,13.56
2018-03-27T11:44:09.617Z,13.61
2018-03-27T11:45:12.979Z,13.63
2018-03-27T11:46:16.342Z,13.64
2018-03-27T11:47:19.652Z,13.64
2018-03-27T11:48:23.030Z,13.63
2018-03-27T11:49:26.405Z,13.64
2018-03-27T11:50:29.713Z,13.63
2018-03-27T11:51:33.080Z,13.61
2018-03-27T11:52:36.421Z,13.58
2018-03-27T11:53:39.825Z,13.57
2018-03-27T11:54:43.116Z,13.54
2018-03-27T11:55:46.435Z,13.53
2018-03-27T11:56:49.786Z,13.53
2018-03-27T11:57:53.182Z,13.53
2018-03-27T11:58:56.556Z,13.55
2018-03-27T12:00:00.280Z,13.55
2018-03-27T12:01:03.581Z,13.56
2018-03-27T12:02:06.999Z,13.56
2018-03-27T12:03:10.885Z,13.56
2018-03-27T12:04:14.266Z,13.54
2018-03-27T12:05:17.576Z,13.54
2018-03-27T12:06:20.926Z,13.54
2018-03-27T12:07:24.283Z,13.53
2018-03-27T12:08:27.650Z,13.54
2018-03-27T12:09:30.981Z,13.55
2018-03-27T12:10:34.348Z,13.57
2018-03-27T12:11:37.673Z,13.60
2018-03-27T12:12:41.020Z,13.63
2018-03-27T12:13:44.321Z,13.65
2018-03-27T12:14:47.632Z,13.65
2018-03-27T12:15:50.996Z,13.65
2018-03-27T12:16:54.325Z,13.64
2018-03-27T12:17:57.693Z,13.64
2018-03-27T12:19:01.387Z,13.64
2018-03-27T12:20:04.784Z,13.65
2018-03-27T12:21:08.122Z,13.66
2018-03-27T12:22:11.432Z,13.68
2018-03-27T12:23:14.847Z,13.68
2018-03-27T12:24:18.189Z,13.68
2018-03-27T12:25:21.512Z,13.68
2018-03-27T12:26:24.920Z,13.67
2018-03-27T12:27:28.348Z,13.67
2018-03-27T12:28:31.732Z,13.66
2018-03-27T12:29:35.065Z,13.67
2018-03-27T12:30:38.449Z,13.68
2018-03-27T12:31:43.498Z,13.68
2018-03-27T12:32:46.844Z,13.69
2018-03-27T12:33:50.235Z,13.69
2018-03-27T12:34:53.568Z,13.73
2018-03-27T12:35:56.940Z,13.77
2018-03-27T12:37:00.290Z,13.83
2018-03-27T12:38:03.603Z,13.88
2018-03-27T12:39:07.277Z,13.92
2018-03-27T12:40:11.405Z,13.95
2018-03-27T12:41:14.786Z,13.97
2018-03-27T12:42:18.181Z,13.99
2018-03-27T12:43:21.440Z,14.01
2018-03-27T12:44:24.849Z,14.04
2018-03-27T12:45:28.139Z,14.04
2018-03-27T12:46:31.487Z,14.05
2018-03-27T12:47:34.792Z,14.07
2018-03-27T12:48:38.141Z,14.06
2018-03-27T12:49:41.530Z,14.05
2018-03-27T12:50:45.198Z,14.03
2018-03-27T12:51:48.549Z,14.02
2018-03-27T12:52:51.871Z,14.03
2018-03-27T12:53:55.273Z,14.03
2018-03-27T12:54:58.620Z,14.03
2018-03-27T12:56:02.006Z,14.04
2018-03-27T12:57:05.309Z,14.04
2018-03-27T12:58:08.749Z,14.05
2018-03-27T12:59:12.104Z,14.05
2018-03-27T13:00:15.452Z,14.06
2018-03-27T13:01:18.802Z,14.07
2018-03-27T13:02:22.103Z,14.08
2018-03-27T13:03:25.448Z,14.08
2018-03-27T13:04:28.825Z,14.09
2018-03-27T13:05:32.246Z,14.09
2018-03-27T13:06:35.533Z,14.10
2018-03-27T13:07:38.841Z,14.12
2018-03-27T13:08:42.203Z,14.15
2018-03-27T13:09:45.515Z,14.18
2018-03-27T13:10:48.948Z,14.20
2018-03-27T13:11:52.300Z,14.22
2018-03-27T13:12:55.699Z,14.23
2018-03-27T13:13:58.996Z,14.23
2018-03-27T13:15:02.328Z,14.23
2018-03-27T13:16:05.720Z,14.23
2018-03-27T13:17:09.068Z,14.22
2018-03-27T13:18:12.425Z,14.20
2018-03-27T13:19:15.803Z,14.16
2018-03-27T13:20:19.111Z,14.11
2018-03-27T13:21:22.584Z,14.06
2018-03-27T13:22:25.956Z,14.03
2018-03-27T13:23:29.308Z,14.01
2018-03-27T13:24:32.694Z,13.99
2018-03-27T13:25:36.041Z,13.98
2018-03-27T13:26:39.408Z,13.96
2018-03-27T13:27:42.892Z,13.96
2018-03-27T13:28:46.226Z,13.95
2018-03-27T13:29:49.546Z,13.95
2018-03-27T13:30:52.875Z,13.94
2018-03-27T13:31:57.868Z,13.92
2018-03-27T13:33:01.284Z,13.91
2018-03-27T13:34:04.606Z,13.91
2018-03-27T13:35:07.974Z,13.90
2018-03-27T13:36:11.313Z,13.90
2018-03-27T13:37:14.765Z,13.90
2018-03-27T13:38:18.114Z,13.90
2018-03-27T13:39:21.473Z,13.90
2018-03-27T13:40:24.814Z,13.89
2018-03-27T13:41:28.158Z,13.87
2018-03-27T13:42:31.493Z,13.85
2018-03-27T13:43:34.809Z,13.83
2018-03-27T13:44:38.172Z,13.82
2018-03-27T13:45:41.537Z,13.81
2018-03-27T13:46:44.862Z,13.82
2018-03-27T13:47:48.336Z,13.82
2018-03-27T13:48:51.733Z,13.82
2018-03-27T13:49:55.043Z,13.83
2018-03-27T13:50:58.372Z,13.84
2018-03-27T13:52:01.856Z,13.85
2018-03-27T13:53:05.304Z,13.85
2018-03-27T13:54:08.666Z,13.86
2018-03-27T13:55:11.976Z,13.87
2018-03-27T13:56:15.360Z,13.87